Time;durP1;ratioP1;P1;durP2;ratioP2;P2;SDS_P1;SDS_P2;PMS_P1;PMS_P2;Temp;Humidity;BMP_temperature;BMP_pressure;BME280_temperature;BME280_humidity;BME280_pressure;Samples;Min_cycle;Max_cycle;Signal;HPM_P1;HPM_P2
2023/04/06 00:03:20;;;;;;;3.80;2.50;;;20.80;56.90;;;;;;10471425;28;20068;-26
2023/04/06 00:08:23;;;;;;;6.15;3.00;;;20.70;56.80;;;;;;10463938;28;20400;-26
2023/04/06 00:13:26;;;;;;;4.75;3.53;;;20.70;56.80;;;;;;10471697;28;20052;-25
2023/04/06 00:18:28;;;;;;;4.80;2.70;;;20.70;57.00;;;;;;10479643;28;21762;-26
2023/04/06 00:23:30;;;;;;;4.22;2.38;;;20.70;57.00;;;;;;10479858;28;20089;-24
2023/04/06 00:28:33;;;;;;;4.90;2.88;;;20.60;57.10;;;;;;10493050;28;20093;-24
2023/04/06 00:33:35;;;;;;;7.15;4.38;;;20.60;57.00;;;;;;10478320;28;20048;-25
2023/04/06 00:38:37;;;;;;;4.55;2.22;;;20.50;57.20;;;;;;10490352;28;20056;-24
2023/04/06 00:43:40;;;;;;;4.95;2.20;;;20.50;57.20;;;;;;10481688;28;20044;-25
2023/04/06 00:48:42;;;;;;;3.92;2.88;;;20.50;57.30;;;;;;10477199;28;20554;-25
2023/04/06 00:53:44;;;;;;;5.63;3.75;;;20.50;57.90;;;;;;10473515;28;20070;-27
2023/04/06 00:58:48;;;;;;;5.32;3.10;;;20.40;57.40;;;;;;10483108;28;20292;-26
2023/04/06 01:03:50;;;;;;;4.80;3.15;;;20.40;57.30;;;;;;10473184;28;20044;-25
2023/04/06 01:08:52;;;;;;;;;;;20.40;57.50;;;;;;10478487;28;20060;-25
2023/04/06 01:13:55;;;;;;;5.95;4.22;;;20.40;57.60;;;;;;10481195;28;20011;-26
2023/04/06 01:18:57;;;;;;;4.90;3.33;;;20.30;57.50;;;;;;10473593;28;20147;-25
2023/04/06 01:24:00;;;;;;;5.05;3.00;;;20.30;57.40;;;;;;10482391;28;20102;-25
2023/04/06 01:29:03;;;;;;;6.18;3.88;;;20.30;57.40;;;;;;10487690;28;20086;-24
2023/04/06 01:34:05;;;;;;;7.07;4.15;;;20.30;57.40;;;;;;10496450;28;20465;-25
2023/04/06 01:39:08;;;;;;;5.95;3.65;;;20.20;57.50;;;;;;10480031;28;20072;-25
2023/04/06 01:44:10;;;;;;;6.18;3.40;;;20.20;57.50;;;;;;10478493;28;20073;-27
2023/04/06 01:49:12;;;;;;;3.63;2.38;;;20.20;57.70;;;;;;10486163;28;20072;-25
2023/04/06 01:54:15;;;;;;;5.13;3.25;;;20.20;57.50;;;;;;10487088;28;20068;-26
2023/04/06 01:59:17;;;;;;;6.53;3.42;;;20.10;57.60;;;;;;10485537;28;20048;-25
2023/04/06 02:04:19;;;;;;;5.20;3.05;;;20.10;57.60;;;;;;10492219;28;20083;-25
2023/04/06 02:09:22;;;;;;;4.05;2.92;;;20.10;57.80;;;;;;10475644;28;20048;-26
2023/04/06 02:14:26;;;;;;;4.00;2.58;;;20.10;57.70;;;;;;10486241;28;20138;-25
2023/04/06 02:19:28;;;;;;;3.47;2.75;;;20.10;57.70;;;;;;10468627;28;20041;-23
2023/04/06 02:24:31;;;;;;;2.70;1.77;;;20.10;57.70;;;;;;10483352;28;20554;-25
2023/04/06 02:29:33;;;;;;;4.78;3.45;;;20.00;57.60;;;;;;10481974;28;20156;-24
2023/04/06 02:34:35;;;;;;;4.40;3.00;;;20.00;57.60;;;;;;10479479;28;20068;-25
2023/04/06 02:39:38;;;;;;;2.97;1.60;;;20.00;57.70;;;;;;10498138;28;20135;-24
2023/04/06 02:44:40;;;;;;;2.65;2.03;;;20.00;57.70;;;;;;10483491;28;20102;-25
2023/04/06 02:49:42;;;;;;;2.55;1.80;;;20.00;57.70;;;;;;10510432;28;20072;-23
2023/04/06 02:54:45;;;;;;;2.70;2.08;;;19.90;57.80;;;;;;10481427;28;20079;-24
2023/04/06 02:59:47;;;;;;;4.18;2.97;;;19.90;57.70;;;;;;10486144;28;20134;-23
2023/04/06 03:04:49;;;;;;;3.25;2.38;;;19.90;57.70;;;;;;10494192;28;20634;-23
2023/04/06 03:09:52;;;;;;;2.67;2.03;;;19.90;57.70;;;;;;10480511;28;20510;-24
2023/04/06 03:14:54;;;;;;;2.80;2.00;;;19.80;57.90;;;;;;10493746;28;20052;-24
2023/04/06 03:19:56;;;;;;;2.72;2.00;;;19.80;57.70;;;;;;10470835;28;20067;-25
2023/04/06 03:24:59;;;;;;;3.30;1.85;;;19.80;57.70;;;;;;10487910;28;20432;-24
2023/04/06 03:30:01;;;;;;;2.10;1.88;;;19.70;57.80;;;;;;10477120;28;20160;-25
2023/04/06 03:35:03;;;;;;;2.42;1.90;;;19.60;58.00;;;;;;10478259;28;20125;-23
2023/04/06 03:40:07;;;;;;;2.55;1.85;;;19.60;58.00;;;;;;10482499;28;20156;-24
2023/04/06 03:45:10;;;;;;;1.90;1.70;;;19.50;58.00;;;;;;10462926;28;20079;-24
2023/04/06 03:50:12;;;;;;;3.58;2.30;;;19.50;58.20;;;;;;10486228;28;20099;-25
2023/04/06 03:55:15;;;;;;;3.13;1.92;;;19.50;58.00;;;;;;10476330;28;20048;-24
2023/04/06 04:00:17;;;;;;;2.95;1.88;;;19.60;58.20;;;;;;10478510;28;20134;-25
2023/04/06 04:05:19;;;;;;;3.05;2.08;;;19.70;57.90;;;;;;10479210;28;20509;-24
2023/04/06 04:10:22;;;;;;;1.95;1.70;;;19.60;57.90;;;;;;10476977;28;20061;-25
2023/04/06 04:15:24;;;;;;;2.42;1.88;;;19.60;57.00;;;;;;10487217;28;20121;-24
2023/04/06 04:20:26;;;;;;;2.40;1.90;;;19.50;56.90;;;;;;10482558;28;20481;-25
2023/04/06 04:25:29;;;;;;;2.75;2.17;;;19.50;57.10;;;;;;10482103;28;20052;-24
2023/04/06 04:30:31;;;;;;;3.50;2.08;;;19.50;57.50;;;;;;10480773;28;20056;-25
2023/04/06 04:35:33;;;;;;;3.00;2.08;;;19.60;57.30;;;;;;10472479;28;20098;-25
2023/04/06 04:40:36;;;;;;;2.70;2.20;;;19.60;57.40;;;;;;10497850;28;20086;-24
2023/04/06 04:45:38;;;;;;;3.13;2.30;;;19.60;57.40;;;;;;10488870;28;20144;-25
2023/04/06 04:50:40;;;;;;;3.78;2.03;;;19.60;57.50;;;;;;10496234;28;20540;-25
2023/04/06 04:55:43;;;;;;;2.17;1.98;;;19.60;57.60;;;;;;10489577;28;20080;-23
2023/04/06 05:00:45;;;;;;;2.70;2.20;;;19.70;57.50;;;;;;10475685;28;20070;-23
2023/04/06 05:05:47;;;;;;;3.83;2.30;;;19.70;57.50;;;;;;10484540;28;20079;-24
2023/04/06 05:10:50;;;;;;;3.22;2.55;;;19.80;57.40;;;;;;10479238;28;20477;-25
2023/04/06 05:15:52;;;;;;;3.13;1.95;;;19.80;57.50;;;;;;10501115;28;20113;-24
2023/04/06 05:20:54;;;;;;;3.05;2.17;;;19.80;57.50;;;;;;10482393;28;20127;-24
2023/04/06 05:25:57;;;;;;;3.70;2.17;;;19.80;57.30;;;;;;10475445;28;20072;-24
2023/04/06 05:30:59;;;;;;;3.28;2.30;;;19.80;57.30;;;;;;10468488;28;20048;-24
2023/04/06 05:36:01;;;;;;;3.35;2.47;;;19.90;57.20;;;;;;10480773;28;20420;-25
2023/04/06 05:41:05;;;;;;;3.35;2.85;;;19.80;57.20;;;;;;10472742;28;20048;-25
2023/04/06 05:46:07;;;;;;;4.32;2.88;;;19.90;57.10;;;;;;10480705;28;20481;-24
2023/04/06 05:51:09;;;;;;;4.15;3.22;;;19.90;57.20;;;;;;10482775;28;20434;-25
2023/04/06 05:56:12;;;;;;;4.00;2.80;;;19.90;57.20;;;;;;10481534;28;20063;-25
2023/04/06 06:01:15;;;;;;;5.30;2.97;;;20.10;57.00;;;;;;10477762;28;20048;-23
2023/04/06 06:15:30;;;;;;;6.22;3.33;;;20.10;56.00;;;;;;10498771;27;20114;-30
2023/04/06 06:20:31;;;;;;;3.33;2.42;;;19.90;56.90;;;;;;10486855;28;20056;-24
2023/04/06 06:25:33;;;;;;;5.97;2.90;;;20.00;57.00;;;;;;10481264;28;20072;-24
2023/04/06 06:30:37;;;;;;;6.28;3.20;;;20.00;56.90;;;;;;10476886;28;20993;-23
2023/04/06 06:35:39;;;;;;;5.88;2.38;;;20.00;57.10;;;;;;10464949;28;20040;-24
2023/04/06 06:40:41;;;;;;;16.42;10.75;;;20.00;57.20;;;;;;10469626;28;20051;-22
2023/04/06 06:45:45;;;;;;;5.28;3.25;;;19.90;57.30;;;;;;10468261;28;20170;-24
2023/04/06 06:50:49;;;;;;;6.78;2.55;;;19.50;59.20;;;;;;10476329;28;20048;-24
2023/04/06 06:55:51;;;;;;;2.78;2.30;;;19.90;58.00;;;;;;10470095;28;20052;-25
2023/04/06 07:00:56;;;;;;;3.72;2.20;;;19.90;58.20;;;;;;10474682;28;20510;-24
2023/04/06 07:05:58;;;;;;;6.65;4.57;;;19.90;58.70;;;;;;10479902;28;20493;-25
2023/04/06 07:11:00;;;;;;;7.68;3.03;;;20.00;57.80;;;;;;10476262;28;20100;-23
2023/04/06 07:16:04;;;;;;;3.90;2.30;;;19.80;58.60;;;;;;10472367;28;20036;-25
2023/04/06 07:21:05;;;;;;;9.05;3.17;;;19.50;60.00;;;;;;10475814;28;20056;-25
2023/04/06 07:26:07;;;;;;;7.47;4.88;;;19.80;58.20;;;;;;10452791;28;20039;-24
2023/04/06 07:31:10;;;;;;;4.93;2.97;;;18.60;61.60;;;;;;10445310;28;20561;-26
2023/04/06 07:36:12;;;;;;;2.70;1.73;;;19.70;60.40;;;;;;10447265;28;20675;-26
2023/04/06 07:41:14;;;;;;;7.10;1.67;;;19.90;59.30;;;;;;10461025;28;20041;-24
2023/04/06 07:46:17;;;;;;;6.85;3.53;;;19.80;59.60;;;;;;10443159;28;20045;-25
2023/04/06 07:51:19;;;;;;;3.70;2.40;;;19.70;59.60;;;;;;10461845;28;20477;-25
2023/04/06 07:56:22;;;;;;;7.53;4.22;;;19.70;60.40;;;;;;10451688;28;20053;-25
2023/04/06 08:01:25;;;;;;;;;;;19.10;62.00;;;;;;10455309;28;20080;-24
2023/04/06 08:06:27;;;;;;;10.88;2.88;;;19.50;60.80;;;;;;10450588;28;20023;-24
2023/04/06 08:11:28;;;;;;;3.38;1.92;;;18.90;64.00;;;;;;10447213;28;20700;-24
2023/04/06 08:16:32;;;;;;;8.30;2.45;;;19.30;62.20;;;;;;10444170;28;20740;-26
2023/04/06 08:21:34;;;;;;;3.30;1.75;;;19.60;61.10;;;;;;10438534;28;20106;-25
2023/04/06 08:26:35;;;;;;;;;;;19.60;60.70;;;;;;10451519;28;20505;-27
2023/04/06 08:31:39;;;;;;;3.53;2.03;;;19.50;61.40;;;;;;10443617;28;20040;-29
2023/04/06 08:36:40;;;;;;;2.90;1.58;;;19.40;61.40;;;;;;10447895;28;20075;-24
2023/04/06 08:41:43;;;;;;;2.50;1.77;;;19.50;61.80;;;;;;10452620;28;20077;-25
2023/04/06 08:46:46;;;;;;;4.25;2.22;;;19.40;61.20;;;;;;10438479;28;20052;-28
2023/04/06 08:51:49;;;;;;;2.47;1.67;;;19.40;63.70;;;;;;10448308;28;20143;-26
2023/04/06 08:56:52;;;;;;;2.67;1.73;;;19.40;67.30;;;;;;10454796;28;20072;-28
2023/04/06 09:01:56;;;;;;;4.57;1.95;;;19.30;63.80;;;;;;10448876;28;20045;-26
2023/04/06 09:06:58;;;;;;;4.50;1.80;;;19.10;64.10;;;;;;10448206;28;20486;-28
2023/04/06 09:12:05;;;;;;;1.60;1.35;;;19.40;62.90;;;;;;10449254;28;20498;-28
2023/04/06 09:17:09;;;;;;;2.75;1.52;;;19.20;63.70;;;;;;10445105;28;20111;-27
2023/04/06 09:22:11;;;;;;;2.55;1.70;;;18.90;63.90;;;;;;10448128;28;20076;-24
2023/04/06 09:27:13;;;;;;;2.13;1.42;;;19.10;64.00;;;;;;10444314;28;20045;-25
2023/04/06 09:32:17;;;;;;;2.15;1.13;;;19.10;64.30;;;;;;10435182;28;20076;-26
2023/04/06 09:37:20;;;;;;;1.42;1.23;;;19.20;63.50;;;;;;10441307;28;20098;-27
2023/04/06 09:42:26;;;;;;;4.00;1.10;;;19.20;63.60;;;;;;10456793;28;20080;-25
2023/04/06 09:47:30;;;;;;;3.40;1.17;;;19.30;63.50;;;;;;10446400;28;20068;-25
2023/04/06 09:52:38;;;;;;;2.67;1.40;;;19.30;63.50;;;;;;10449236;28;20088;-27
2023/04/06 09:57:51;;;;;;;2.97;1.27;;;19.10;64.10;;;;;;10447080;28;20045;-27
2023/04/06 10:02:59;;;;;;;2.95;0.90;;;19.20;64.50;;;;;;10442851;28;20555;-26
2023/04/06 10:08:08;;;;;;;3.95;1.20;;;19.30;64.00;;;;;;10444493;28;20052;-28
2023/04/06 10:13:11;;;;;;;2.28;1.25;;;19.10;64.90;;;;;;10445701;28;20055;-26
2023/04/06 10:18:16;;;;;;;3.58;1.00;;;19.30;64.00;;;;;;10450185;28;20085;-26
2023/04/06 10:23:23;;;;;;;2.95;1.48;;;19.30;64.20;;;;;;10448386;28;20537;-26
2023/04/06 10:28:25;;;;;;;1.70;1.30;;;19.20;65.10;;;;;;10445663;28;20045;-26
2023/04/06 10:33:29;;;;;;;4.95;2.13;;;19.20;64.40;;;;;;10442864;28;20569;-26
2023/04/06 10:38:35;;;;;;;3.45;1.80;;;19.20;64.60;;;;;;10450081;28;20076;-28
2023/04/06 10:43:38;;;;;;;3.85;1.55;;;19.40;63.90;;;;;;10449245;28;20258;-26
2023/04/06 10:48:43;;;;;;;2.67;1.30;;;19.30;64.40;;;;;;10444138;28;20147;-26
2023/04/06 10:53:46;;;;;;;2.03;1.33;;;19.10;64.60;;;;;;10433642;28;20140;-27
2023/04/06 10:58:50;;;;;;;3.50;1.50;;;19.20;64.70;;;;;;10447462;28;20445;-28
2023/04/06 11:03:55;;;;;;;2.53;1.52;;;19.10;65.50;;;;;;10451742;28;20041;-26
2023/04/06 11:08:58;;;;;;;5.45;2.20;;;19.00;65.70;;;;;;10445690;28;20053;-26
2023/04/06 11:14:00;;;;;;;3.95;2.13;;;19.10;65.70;;;;;;10438894;28;20135;-27
2023/04/06 11:19:05;;;;;;;2.63;1.90;;;19.10;65.60;;;;;;10442873;28;20076;-25
2023/04/06 11:24:08;;;;;;;3.10;1.83;;;19.20;64.90;;;;;;10440363;28;20490;-26
2023/04/06 11:29:10;;;;;;;4.10;1.85;;;19.00;65.30;;;;;;10447168;28;20045;-25
2023/04/06 11:34:17;;;;;;;4.00;2.10;;;19.10;65.00;;;;;;10439484;28;20234;-28
2023/04/06 11:39:21;;;;;;;2.92;1.90;;;19.20;64.40;;;;;;10451252;28;20481;-26
2023/04/06 11:44:34;;;;;;;3.80;1.92;;;19.10;64.40;;;;;;10443325;28;20088;-26
2023/04/06 11:49:39;;;;;;;1.77;1.63;;;19.10;64.20;;;;;;10437177;28;20079;-26
2023/04/06 11:54:41;;;;;;;5.32;2.55;;;19.10;64.60;;;;;;10447338;28;20203;-27
2023/04/06 11:59:44;;;;;;;2.28;1.48;;;19.10;64.40;;;;;;10446772;28;20166;-28
2023/04/06 12:04:47;;;;;;;5.35;2.35;;;19.00;64.80;;;;;;10462329;28;20575;-27
2023/04/06 12:09:50;;;;;;;2.53;1.42;;;19.10;65.10;;;;;;10454583;28;20049;-27
2023/04/06 12:14:52;;;;;;;5.00;1.98;;;18.70;65.80;;;;;;10446735;28;20056;-28
2023/04/06 12:19:55;;;;;;;1.90;1.35;;;19.00;64.80;;;;;;10444178;28;20048;-26
2023/04/06 12:24:57;;;;;;;3.13;1.92;;;18.90;65.30;;;;;;10449292;28;20065;-26
2023/04/06 12:29:59;;;;;;;4.93;2.03;;;18.60;66.20;;;;;;10458647;28;20476;-26
2023/04/06 12:35:02;;;;;;;3.67;1.85;;;18.80;65.60;;;;;;10452276;28;20057;-26
2023/04/06 12:40:05;;;;;;;3.40;2.05;;;18.90;65.00;;;;;;10453552;28;20052;-26
2023/04/06 12:45:08;;;;;;;2.35;1.90;;;18.70;65.70;;;;;;10462277;28;20502;-25
2023/04/06 12:50:11;;;;;;;5.10;1.90;;;18.90;65.40;;;;;;10463964;28;20049;-26
2023/04/06 12:55:13;;;;;;;3.22;2.10;;;18.70;65.90;;;;;;10455847;28;20482;-25
2023/04/06 13:00:16;;;;;;;3.22;1.95;;;18.90;64.90;;;;;;10454114;28;20498;-26
2023/04/06 13:05:19;;;;;;;4.75;2.05;;;18.60;65.70;;;;;;10453262;28;20110;-25
2023/04/06 13:10:21;;;;;;;3.05;2.00;;;18.80;64.90;;;;;;10449272;28;20545;-26
2023/04/06 13:15:23;;;;;;;3.13;2.10;;;18.70;65.70;;;;;;10444497;28;20139;-26
2023/04/06 13:20:27;;;;;;;4.95;2.13;;;18.70;65.30;;;;;;10445182;28;20501;-26
2023/04/06 13:25:30;;;;;;;4.50;2.53;;;18.50;67.00;;;;;;10445360;28;20052;-25
2023/04/06 13:30:32;;;;;;;2.40;1.75;;;18.90;65.30;;;;;;10443826;28;20102;-27
2023/04/06 13:35:35;;;;;;;3.63;1.50;;;19.00;65.10;;;;;;10445756;28;20045;-24
2023/04/06 13:40:39;;;;;;;5.13;2.17;;;19.10;64.70;;;;;;10444588;28;22396;-26
2023/04/06 13:45:41;;;;;;;4.55;2.10;;;19.20;64.50;;;;;;10443474;28;20047;-26
2023/04/06 13:50:45;;;;;;;2.72;1.73;;;19.30;64.50;;;;;;10442807;28;20444;-23
2023/04/06 13:55:54;;;;;;;3.53;2.17;;;18.70;66.90;;;;;;10446770;28;20052;-25
2023/04/06 14:00:56;;;;;;;3.13;1.27;;;18.80;69.90;;;;;;10448117;28;20934;-24
2023/04/06 14:06:00;;;;;;;5.15;1.52;;;18.90;69.20;;;;;;10446483;28;20385;-24
2023/04/06 14:11:02;;;;;;;6.32;1.65;;;19.50;68.60;;;;;;10442382;28;20049;-23
2023/04/06 14:16:04;;;;;;;10.50;3.42;;;19.50;68.00;;;;;;10450494;28;20060;-23
2023/04/06 14:21:08;;;;;;;21.08;7.90;;;19.50;67.90;;;;;;10439544;28;20055;-23
2023/04/06 14:26:10;;;;;;;36.00;10.27;;;19.50;67.30;;;;;;10441224;28;20063;-23
2023/04/06 14:31:13;;;;;;;35.20;12.88;;;19.60;66.70;;;;;;10446453;28;20045;-22
2023/04/06 14:36:16;;;;;;;32.28;11.18;;;19.70;67.00;;;;;;10444932;28;20378;-22
2023/04/06 14:41:18;;;;;;;34.72;10.57;;;19.70;67.50;;;;;;10463302;28;20127;-24
2023/04/06 14:46:20;;;;;;;;;;;19.50;68.40;;;;;;10451451;28;20120;-23
2023/04/06 14:51:26;;;;;;;18.67;7.47;;;19.40;69.10;;;;;;10457111;28;19944;-25
2023/04/06 14:56:29;;;;;;;20.90;8.00;;;18.90;72.10;;;;;;10455414;28;20473;-23
2023/04/06 15:01:34;;;;;;;22.95;7.38;;;19.60;68.10;;;;;;10450767;28;20057;-23
2023/04/06 15:06:38;;;;;;;22.02;6.13;;;19.70;67.60;;;;;;10449279;28;20060;-24
2023/04/06 15:11:42;;;;;;;13.00;4.93;;;19.80;67.30;;;;;;10451798;28;20055;-22
2023/04/06 15:16:44;;;;;;;8.10;3.83;;;19.90;67.10;;;;;;10451458;28;20505;-23
2023/04/06 15:21:49;;;;;;;;;;;19.90;67.00;;;;;;10452820;28;20060;-22
2023/04/06 15:26:51;;;;;;;8.60;2.90;;;19.40;71.30;;;;;;10445097;28;20463;-24
2023/04/06 15:31:53;;;;;;;5.93;3.60;;;20.00;68.00;;;;;;10450225;28;20540;-24
2023/04/06 15:36:58;;;;;;;5.55;2.10;;;19.90;67.70;;;;;;10449339;28;20550;-24
2023/04/06 15:42:00;;;;;;;6.97;2.33;;;20.00;67.60;;;;;;10450532;28;20037;-24
2023/04/06 15:47:02;;;;;;;;;;;19.30;71.90;;;;;;10447755;28;20048;-23
2023/04/06 15:52:06;;;;;;;6.57;2.70;;;20.10;66.60;;;;;;10447793;28;19921;-23
2023/04/06 15:57:08;;;;;;;5.65;2.78;;;19.70;69.50;;;;;;10448802;28;20044;-23
2023/04/06 16:02:09;;;;;;;6.18;2.67;;;20.20;66.60;;;;;;10451819;28;20045;-23
2023/04/06 16:07:13;;;;;;;4.28;1.70;;;20.30;66.90;;;;;;10453269;28;20048;-24
2023/04/06 16:12:14;;;;;;;7.53;2.38;;;20.30;66.80;;;;;;10454113;28;20140;-23
2023/04/06 16:17:16;;;;;;;3.45;1.92;;;20.10;67.30;;;;;;10441072;28;20478;-22
2023/04/06 16:22:20;;;;;;;5.85;4.68;;;19.80;70.10;;;;;;10439494;28;20386;-23
2023/04/06 16:27:21;;;;;;;4.28;2.42;;;19.90;67.50;;;;;;10449180;28;20425;-23
2023/04/06 16:32:23;;;;;;;6.53;4.10;;;19.00;74.50;;;;;;10447476;28;20462;-24
2023/04/06 16:37:28;;;;;;;10.45;4.43;;;17.20;87.30;;;;;;10448908;28;20561;-23
2023/04/06 16:42:30;;;;;;;9.10;3.85;;;18.00;83.40;;;;;;10447924;28;20099;-23
2023/04/06 16:47:32;;;;;;;5.10;3.47;;;19.30;74.90;;;;;;10441012;28;20132;-24
2023/04/06 16:52:36;;;;;;;4.43;2.28;;;19.90;70.50;;;;;;10446760;28;20053;-25
2023/04/06 16:57:37;;;;;;;4.30;2.38;;;19.60;72.40;;;;;;10444773;28;20465;-23
2023/04/06 17:02:39;;;;;;;3.70;2.55;;;19.60;71.50;;;;;;10441243;28;20041;-23
2023/04/06 17:07:42;;;;;;;5.00;4.07;;;18.20;80.60;;;;;;10447003;28;20076;-24
2023/04/06 17:12:45;;;;;;;6.28;3.22;;;16.20;89.60;;;;;;10441882;28;20494;-25
2023/04/06 17:17:47;;;;;;;4.88;3.05;;;14.80;99.90;;;;;;10440863;28;20132;-23
2023/04/06 17:22:50;;;;;;;4.17;3.33;;;13.80;99.90;;;;;;10446339;28;20049;-24
2023/04/06 17:27:52;;;;;;;7.95;2.70;;;15.10;99.10;;;;;;10445951;28;20494;-23
2023/04/06 17:32:54;;;;;;;4.90;3.70;;;15.90;99.70;;;;;;10445384;28;20045;-22
2023/04/06 17:37:57;;;;;;;7.13;2.77;;;15.10;99.90;;;;;;10447238;28;20056;-22
2023/04/06 17:42:59;;;;;;;6.82;3.15;;;15.00;99.90;;;;;;10441270;28;20041;-23
2023/04/06 17:48:01;;;;;;;9.33;3.33;;;14.70;99.90;;;;;;10444511;28;20394;-23
2023/04/06 17:53:05;;;;;;;6.57;2.33;;;14.90;99.90;;;;;;10437998;28;20570;-24
2023/04/06 17:58:06;;;;;;;7.95;1.60;;;14.50;99.90;;;;;;10440996;28;20053;-23
2023/04/06 18:03:08;;;;;;;8.67;2.20;;;16.50;97.40;;;;;;10443888;28;20144;-24
2023/04/06 18:08:13;;;;;;;5.80;1.60;;;15.90;97.40;;;;;;10443273;28;20072;-23
2023/04/06 18:13:15;;;;;;;10.50;3.15;;;15.70;99.90;;;;;;10441402;28;20049;-23
2023/04/06 18:18:18;;;;;;;10.48;2.70;;;14.10;99.90;;;;;;10449675;28;20474;-22
2023/04/06 18:23:21;;;;;;;12.77;3.42;;;13.70;99.90;;;;;;10444227;28;20114;-23
2023/04/06 18:28:23;;;;;;;23.27;4.63;;;13.20;99.90;;;;;;10439809;28;20098;-22
2023/04/06 18:33:26;;;;;;;6.57;1.90;;;13.40;99.90;;;;;;10442661;28;20092;-23
2023/04/06 18:38:29;;;;;;;11.10;2.75;;;14.00;99.90;;;;;;10446816;28;20037;-23
2023/04/06 18:43:31;;;;;;;6.88;2.88;;;15.70;99.00;;;;;;10449111;28;20141;-24
2023/04/06 18:48:33;;;;;;;6.97;2.80;;;15.90;96.30;;;;;;10443396;28;20129;-23
2023/04/06 18:53:36;;;;;;;7.80;3.87;;;16.20;98.10;;;;;;10443905;28;20096;-23
2023/04/06 18:58:41;;;;;;;6.15;2.10;;;17.20;94.30;;;;;;10451917;28;20060;-24
2023/04/06 19:03:43;;;;;;;5.43;2.00;;;16.90;85.70;;;;;;10443886;28;20714;-24
2023/04/06 19:08:46;;;;;;;3.95;1.83;;;16.80;84.20;;;;;;10453299;28;20098;-24
2023/04/06 19:13:49;;;;;;;6.65;1.65;;;17.30;94.00;;;;;;10439708;28;20144;-24
2023/04/06 19:18:51;;;;;;;4.10;1.65;;;18.10;87.80;;;;;;10445551;28;20068;-24
2023/04/06 19:23:54;;;;;;;7.90;2.78;;;18.20;84.70;;;;;;10450871;28;20079;-22
2023/04/06 19:28:56;;;;;;;7.68;2.80;;;17.70;92.10;;;;;;10446288;28;20049;-24
2023/04/06 19:33:59;;;;;;;6.10;1.60;;;18.70;83.60;;;;;;10449215;28;20081;-23
2023/04/06 19:39:02;;;;;;;;;;;18.10;82.10;;;;;;10456502;28;20052;-23
2023/04/06 19:44:04;;;;;;;6.15;1.67;;;17.40;92.90;;;;;;10462066;28;19925;-23
2023/04/06 19:49:06;;;;;;;6.75;2.50;;;17.40;91.60;;;;;;10450787;28;20073;-23
2023/04/06 19:54:09;;;;;;;7.80;1.60;;;17.60;89.90;;;;;;10446468;28;20057;-24
2023/04/06 19:59:11;;;;;;;5.80;1.65;;;17.90;91.00;;;;;;10450106;28;20049;-24
2023/04/06 20:04:13;;;;;;;5.18;2.10;;;17.80;89.60;;;;;;10452253;28;20073;-23
2023/04/06 20:09:16;;;;;;;8.05;2.40;;;18.40;83.50;;;;;;10452368;28;20132;-24
2023/04/06 20:14:18;;;;;;;12.68;3.00;;;17.70;91.30;;;;;;10443838;28;20053;-23
2023/04/06 20:19:20;;;;;;;11.13;4.32;;;16.40;95.60;;;;;;10445292;28;20123;-22
2023/04/06 20:24:23;;;;;;;7.63;2.58;;;17.70;91.50;;;;;;10443406;28;20573;-23
2023/04/06 20:29:26;;;;;;;9.57;3.85;;;18.10;86.00;;;;;;10450783;28;20162;-22
2023/04/06 20:34:28;;;;;;;8.05;3.28;;;17.80;90.20;;;;;;10447018;28;20557;-23
2023/04/06 20:39:31;;;;;;;;;;;17.70;91.30;;;;;;10452411;28;20040;-23
2023/04/06 20:44:33;;;;;;;15.57;1.63;;;17.50;92.20;;;;;;10446000;28;19949;-24
2023/04/06 20:49:35;;;;;;;11.75;2.90;;;17.20;84.40;;;;;;10453937;28;20072;-23
2023/04/06 20:54:38;;;;;;;6.15;2.33;;;18.00;88.30;;;;;;10455206;28;20052;-24
2023/04/06 20:59:40;;;;;;;10.30;1.77;;;17.50;91.20;;;;;;10442419;28;20099;-24
2023/04/06 21:04:42;;;;;;;4.40;1.27;;;16.40;91.30;;;;;;10455786;28;20544;-24
2023/04/06 21:09:45;;;;;;;7.88;1.35;;;15.80;87.80;;;;;;10446356;28;20133;-23
2023/04/06 21:14:47;;;;;;;11.15;2.13;;;16.30;92.10;;;;;;10446317;28;20053;-24
2023/04/06 21:19:49;;;;;;;7.23;2.03;;;17.20;80.30;;;;;;10444865;28;20131;-23
2023/04/06 21:24:52;;;;;;;8.13;2.00;;;15.20;98.50;;;;;;10446685;28;20483;-24
2023/04/06 21:29:54;;;;;;;6.47;1.45;;;15.20;95.20;;;;;;10438262;28;20057;-23
2023/04/06 21:34:56;;;;;;;10.33;2.03;;;13.20;99.90;;;;;;10442420;28;20106;-24
2023/04/06 21:40:01;;;;;;;7.20;2.37;;;15.50;98.30;;;;;;10455979;28;20586;-24
2023/04/06 21:45:03;;;;;;;9.45;2.25;;;15.60;93.80;;;;;;10428226;28;20477;-23
2023/04/06 21:50:06;;;;;;;6.90;2.17;;;14.90;99.90;;;;;;10442912;28;20124;-24
2023/04/06 21:55:10;;;;;;;4.72;1.90;;;14.30;99.90;;;;;;10442399;28;20420;-23
2023/04/06 22:00:13;;;;;;;6.85;2.78;;;15.10;99.30;;;;;;10450466;28;20132;-22
2023/04/06 22:05:15;;;;;;;7.90;3.13;;;15.80;96.50;;;;;;10438245;28;20166;-23
2023/04/06 22:10:19;;;;;;;5.45;1.98;;;15.80;96.20;;;;;;10443767;28;20124;-23
2023/04/06 22:15:21;;;;;;;10.35;3.38;;;17.40;87.90;;;;;;10444417;28;20458;-23
2023/04/06 22:20:23;;;;;;;6.25;2.33;;;16.80;91.50;;;;;;10444192;28;20128;-23
2023/04/06 22:25:26;;;;;;;8.45;2.88;;;17.90;84.10;;;;;;10440687;28;20064;-23
2023/04/06 22:30:28;;;;;;;10.82;2.88;;;17.60;84.10;;;;;;10448366;28;20041;-23
2023/04/06 22:35:30;;;;;;;9.13;2.97;;;17.00;83.60;;;;;;10443223;28;20090;-23
2023/04/06 22:40:34;;;;;;;11.30;4.72;;;16.70;90.80;;;;;;10452227;28;20079;-23
2023/04/06 22:45:35;;;;;;;6.25;3.33;;;17.80;84.30;;;;;;10445047;28;20128;-24
2023/04/06 22:50:37;;;;;;;10.48;4.78;;;18.90;74.30;;;;;;10444504;28;20132;-24
2023/04/06 22:55:41;;;;;;;9.38;4.43;;;19.00;73.10;;;;;;10450856;28;20091;-24
2023/04/06 23:00:43;;;;;;;8.88;4.70;;;18.60;75.00;;;;;;10455482;28;20582;-23
2023/04/06 23:05:46;;;;;;;10.70;5.20;;;18.80;73.60;;;;;;10450448;28;20052;-23
2023/04/06 23:10:50;;;;;;;6.90;3.05;;;19.00;71.40;;;;;;10449146;28;20084;-21
2023/04/06 23:15:52;;;;;;;12.00;5.95;;;17.90;78.60;;;;;;10451019;28;20100;-23
2023/04/06 23:20:53;;;;;;;11.77;5.15;;;18.00;77.40;;;;;;10452985;28;20688;-23
2023/04/06 23:25:57;;;;;;;5.43;2.90;;;18.50;74.70;;;;;;10447634;28;20549;-24
2023/04/06 23:30:58;;;;;;;11.38;3.88;;;18.10;79.10;;;;;;10449654;28;20507;-23
2023/04/06 23:36:00;;;;;;;7.25;3.47;;;16.80;82.40;;;;;;10452363;28;20136;-23
2023/04/06 23:41:04;;;;;;;8.23;2.38;;;15.80;93.80;;;;;;10462250;28;20041;-22
2023/04/06 23:46:05;;;;;;;7.80;2.97;;;16.00;86.80;;;;;;10451934;28;20069;-24
2023/04/06 23:51:08;;;;;;;12.17;1.73;;;17.20;86.50;;;;;;10451915;28;20136;-24
2023/04/06 23:56:11;;;;;;;6.22;2.08;;;15.40;85.20;;;;;;10441102;28;20502;-22
